Time;durP1;ratioP1;P1;durP2;ratioP2;P2;SDS_P1;SDS_P2;PMS_P1;PMS_P2;Temp;Humidity;BMP_temperature;BMP_pressure;BME280_temperature;BME280_humidity;BME280_pressure;Samples;Min_cycle;Max_cycle;Signal;HPM_P1;HPM_P2
2022/11/28 00:01:20;;;;;;;8.05;5.00;;;;;;;;;;5028264;28;20033;-68
2022/11/28 00:03:45;;;;;;;7.18;4.93;;;;;;;;;;5045703;28;20099;-67
2022/11/28 00:06:11;;;;;;;7.90;4.57;;;;;;;;;;5045854;28;20565;-67
2022/11/28 00:08:36;;;;;;;9.18;5.03;;;;;;;;;;5046049;28;20043;-69
2022/11/28 00:11:06;;;;;;;7.78;4.68;;;;;;;;;;5028207;28;20060;-69
2022/11/28 00:13:31;;;;;;;8.45;5.00;;;;;;;;;;5027693;28;20059;-65
2022/11/28 00:15:57;;;;;;;8.13;5.18;;;;;;;;;;5047534;28;20553;-69
2022/11/28 00:18:23;;;;;;;7.70;4.60;;;;;;;;;;5059645;28;20600;-69
2022/11/28 00:20:48;;;;;;;8.27;5.15;;;;;;;;;;5045466;28;20041;-65
2022/11/28 00:23:14;;;;;;;8.18;5.20;;;;;;;;;;5027728;28;20048;-68
2022/11/28 00:25:39;;;;;;;7.47;4.43;;;;;;;;;;5051786;28;20039;-69
2022/11/28 00:28:05;;;;;;;8.82;5.25;;;;;;;;;;5047842;28;20498;-67
2022/11/28 00:30:30;;;;;;;7.75;5.00;;;;;;;;;;5065222;28;20547;-69
2022/11/28 00:32:56;;;;;;;6.97;4.18;;;;;;;;;;5065770;28;20037;-69
2022/11/28 00:35:21;;;;;;;7.50;4.50;;;;;;;;;;5047862;28;20115;-69
2022/11/28 00:37:47;;;;;;;8.70;4.90;;;;;;;;;;5047526;28;20060;-65
2022/11/28 00:40:12;;;;;;;8.18;4.50;;;;;;;;;;5065720;28;20493;-69
2022/11/28 00:42:37;;;;;;;9.07;5.25;;;;;;;;;;5065577;28;20036;-69
2022/11/28 00:45:03;;;;;;;8.95;4.97;;;;;;;;;;5047345;28;20139;-67
2022/11/28 00:47:29;;;;;;;8.68;4.75;;;;;;;;;;5065191;28;20067;-68
2022/11/28 00:49:54;;;;;;;8.30;4.80;;;;;;;;;;5065746;28;20036;-69
2022/11/28 00:52:20;;;;;;;8.23;4.90;;;;;;;;;;5055434;28;20124;-68
2022/11/28 00:54:45;;;;;;;6.70;3.80;;;;;;;;;;5045417;28;20403;-68
2022/11/28 00:57:10;;;;;;;7.55;5.18;;;;;;;;;;5027270;28;20395;-67
2022/11/28 00:59:36;;;;;;;8.23;5.30;;;;;;;;;;5045552;28;20041;-66
2022/11/28 01:02:01;;;;;;;7.57;4.80;;;;;;;;;;5045710;28;20037;-67
2022/11/28 01:04:27;;;;;;;8.55;4.72;;;;;;;;;;5044879;28;20415;-64
2022/11/28 01:06:54;;;;;;;8.25;5.43;;;;;;;;;;5045182;28;20029;-67
2022/11/28 01:09:21;;;;;;;7.45;4.93;;;;;;;;;;5045475;28;20127;-68
2022/11/28 01:11:50;;;;;;;7.03;4.60;;;;;;;;;;5045085;28;20063;-65
2022/11/28 01:14:17;;;;;;;8.55;4.45;;;;;;;;;;5045056;28;20729;-67
2022/11/28 01:16:43;;;;;;;8.25;4.85;;;;;;;;;;5053260;28;20055;-66
2022/11/28 01:19:08;;;;;;;7.55;4.38;;;;;;;;;;5063836;28;20040;-64
2022/11/28 01:21:34;;;;;;;8.93;4.82;;;;;;;;;;5046996;28;20055;-64
2022/11/28 01:24:00;;;;;;;7.45;4.70;;;;;;;;;;5065393;28;20133;-64
2022/11/28 01:26:26;;;;;;;8.27;4.60;;;;;;;;;;5047169;28;20036;-64
2022/11/28 01:28:52;;;;;;;8.50;4.75;;;;;;;;;;5064349;28;20043;-64
2022/11/28 01:31:19;;;;;;;8.13;5.05;;;;;;;;;;5068046;28;20028;-67
2022/11/28 01:33:44;;;;;;;7.85;4.70;;;;;;;;;;5069008;28;20086;-66
2022/11/28 01:36:11;;;;;;;7.20;4.55;;;;;;;;;;5068181;28;20082;-62
2022/11/28 01:38:37;;;;;;;7.40;4.57;;;;;;;;;;5051225;28;20025;-66
2022/11/28 01:41:03;;;;;;;8.43;5.32;;;;;;;;;;5069028;28;20409;-65
2022/11/28 01:43:28;;;;;;;7.45;4.93;;;;;;;;;;5067467;28;20136;-69
2022/11/28 01:45:54;;;;;;;7.65;4.43;;;;;;;;;;5068295;28;20040;-61
2022/11/28 01:48:23;;;;;;;8.30;4.78;;;;;;;;;;5060767;28;20033;-64
2022/11/28 01:50:51;;;;;;;7.53;4.68;;;;;;;;;;5047359;28;20045;-65
2022/11/28 01:53:17;;;;;;;9.07;5.25;;;;;;;;;;5048273;28;20032;-66
2022/11/28 01:55:47;;;;;;;7.22;4.15;;;;;;;;;;5048975;28;20075;-67
2022/11/28 01:58:13;;;;;;;7.65;4.25;;;;;;;;;;5048381;28;20041;-64
2022/11/28 02:00:38;;;;;;;7.78;4.60;;;;;;;;;;5047598;28;20098;-68
2022/11/28 02:03:06;;;;;;;6.53;4.07;;;;;;;;;;5048443;28;20037;-68
2022/11/28 02:05:31;;;;;;;7.70;4.07;;;;;;;;;;5046983;28;20050;-67
2022/11/28 02:07:57;;;;;;;6.32;4.05;;;;;;;;;;5047449;28;20033;-64
2022/11/28 02:10:24;;;;;;;8.05;4.00;;;;;;;;;;5048536;28;20068;-64
2022/11/28 02:13:10;;;;;;;6.78;3.97;;;;;;;;;;5048114;28;20039;-69
2022/11/28 02:15:36;;;;;;;6.78;3.88;;;;;;;;;;5040757;28;20045;-68
2022/11/28 02:18:20;;;;;;;7.38;3.75;;;;;;;;;;5066708;28;20041;-70
2022/11/28 02:21:01;;;;;;;7.65;3.63;;;;;;;;;;5068091;28;20561;-64
2022/11/28 02:23:50;;;;;;;7.80;4.68;;;;;;;;;;5068163;28;20036;-68
2022/11/28 02:26:34;;;;;;;7.45;3.95;;;;;;;;;;5021821;28;20566;-68
2022/11/28 02:29:21;;;;;;;6.07;3.80;;;;;;;;;;5049847;28;20036;-68
2022/11/28 02:31:49;;;;;;;6.60;3.80;;;;;;;;;;5067528;28;20025;-68
2022/11/28 02:34:22;;;;;;;7.55;4.60;;;;;;;;;;5067821;28;20131;-66
2022/11/28 02:36:55;;;;;;;6.95;4.28;;;;;;;;;;5082832;28;20036;-64
2022/11/28 02:39:20;;;;;;;6.22;3.85;;;;;;;;;;5050078;28;20732;-66
2022/11/28 02:41:45;;;;;;;6.57;3.85;;;;;;;;;;5067612;28;20032;-67
2022/11/28 02:44:16;;;;;;;6.32;3.60;;;;;;;;;;5061905;28;20418;-65
2022/11/28 02:46:47;;;;;;;6.93;3.83;;;;;;;;;;5047765;28;20876;-66
2022/11/28 02:49:18;;;;;;;8.82;4.32;;;;;;;;;;5047646;28;20120;-65
2022/11/28 02:51:50;;;;;;;6.32;3.78;;;;;;;;;;5047998;28;20059;-64
2022/11/28 02:54:17;;;;;;;6.50;3.67;;;;;;;;;;5047269;28;20097;-64
2022/11/28 02:56:49;;;;;;;7.15;3.80;;;;;;;;;;5046772;28;20048;-66
2022/11/28 02:59:33;;;;;;;7.15;4.13;;;;;;;;;;5047732;28;20032;-66
2022/11/28 03:02:00;;;;;;;6.45;3.70;;;;;;;;;;5047377;28;20128;-66
2022/11/28 03:04:51;;;;;;;5.95;3.58;;;;;;;;;;5047010;28;20041;-63
2022/11/28 03:07:16;;;;;;;6.68;4.05;;;;;;;;;;5038561;28;20511;-64
2022/11/28 03:10:00;;;;;;;6.72;3.88;;;;;;;;;;5045218;28;20542;-64
2022/11/28 03:12:49;;;;;;;5.20;3.50;;;;;;;;;;5047211;28;20037;-68
2022/11/28 03:15:16;;;;;;;6.55;3.60;;;;;;;;;;5036324;28;20534;-66
2022/11/28 03:17:50;;;;;;;6.43;3.75;;;;;;;;;;5062392;28;20044;-67
2022/11/28 03:20:20;;;;;;;5.78;3.63;;;;;;;;;;5067976;28;20095;-66
2022/11/28 03:23:11;;;;;;;6.00;4.03;;;;;;;;;;5065791;28;20052;-65
2022/11/28 03:25:37;;;;;;;7.65;3.97;;;;;;;;;;5065871;28;20043;-65
2022/11/28 03:28:10;;;;;;;6.43;3.50;;;;;;;;;;5048891;28;20029;-66
2022/11/28 03:30:44;;;;;;;6.07;3.85;;;;;;;;;;5066440;28;20035;-67
2022/11/28 03:33:11;;;;;;;5.65;3.10;;;;;;;;;;5048875;28;20202;-68
2022/11/28 03:35:42;;;;;;;5.70;3.47;;;;;;;;;;5082346;28;20705;-68
2022/11/28 03:38:15;;;;;;;6.07;3.47;;;;;;;;;;5065915;28;20032;-68
2022/11/28 03:40:43;;;;;;;5.38;3.15;;;;;;;;;;5042004;28;20025;-67
2022/11/28 03:43:10;;;;;;;5.43;3.40;;;;;;;;;;5027739;28;20087;-66
2022/11/28 03:45:38;;;;;;;6.85;4.35;;;;;;;;;;5046595;28;20128;-68
2022/11/28 03:48:07;;;;;;;6.05;3.50;;;;;;;;;;5046682;28;20040;-71
2022/11/28 03:50:36;;;;;;;5.18;3.35;;;;;;;;;;5031535;28;20041;-66
2022/11/28 03:53:04;;;;;;;5.45;3.35;;;;;;;;;;5065738;28;20021;-70
2022/11/28 03:55:34;;;;;;;6.68;3.65;;;;;;;;;;5066105;28;20037;-74
2022/11/28 03:58:15;;;;;;;6.07;3.33;;;;;;;;;;5066026;28;20036;-73
2022/11/28 04:00:50;;;;;;;5.40;3.42;;;;;;;;;;5065665;28;20044;-67
2022/11/28 04:03:26;;;;;;;5.72;3.22;;;;;;;;;;5063259;28;20036;-72
2022/11/28 04:06:03;;;;;;;5.53;3.28;;;;;;;;;;5045178;28;20037;-71
2022/11/28 04:08:36;;;;;;;5.75;2.95;;;;;;;;;;5064301;28;20078;-69
2022/11/28 04:11:28;;;;;;;6.05;3.38;;;;;;;;;;5047827;28;20051;-78
2022/11/28 04:13:54;;;;;;;4.85;2.83;;;;;;;;;;5044149;28;20071;-69
2022/11/28 04:16:22;;;;;;;5.68;3.38;;;;;;;;;;5047747;28;20505;-72
2022/11/28 04:18:48;;;;;;;5.63;3.33;;;;;;;;;;5045351;28;20052;-66
2022/11/28 04:21:26;;;;;;;5.95;3.30;;;;;;;;;;5045564;28;20029;-66
2022/11/28 04:23:52;;;;;;;5.78;3.35;;;;;;;;;;5045665;28;20036;-67
2022/11/28 04:26:24;;;;;;;5.80;3.58;;;;;;;;;;5058148;28;20086;-67
2022/11/28 04:28:54;;;;;;;6.53;3.40;;;;;;;;;;5064860;28;20056;-67
2022/11/28 04:31:21;;;;;;;5.93;3.53;;;;;;;;;;5031148;28;20040;-66
2022/11/28 04:33:49;;;;;;;5.18;3.05;;;;;;;;;;5065786;28;20677;-66
2022/11/28 04:36:16;;;;;;;5.82;3.95;;;;;;;;;;5064342;28;20028;-66
2022/11/28 04:38:43;;;;;;;6.03;3.47;;;;;;;;;;5044442;28;20575;-68
2022/11/28 04:41:09;;;;;;;6.80;3.40;;;;;;;;;;5027417;28;20033;-68
2022/11/28 04:43:38;;;;;;;5.70;3.53;;;;;;;;;;5045518;28;20140;-67
2022/11/28 04:46:25;;;;;;;5.47;3.10;;;;;;;;;;5034286;28;20494;-66
2022/11/28 04:48:51;;;;;;;6.20;3.72;;;;;;;;;;5064897;28;20498;-67
2022/11/28 04:51:39;;;;;;;5.35;3.05;;;;;;;;;;5048898;28;20044;-67
2022/11/28 04:54:10;;;;;;;6.00;3.20;;;;;;;;;;5030378;28;20427;-68
2022/11/28 04:56:58;;;;;;;5.30;3.40;;;;;;;;;;5065693;28;20071;-68
2022/11/28 04:59:25;;;;;;;5.72;3.30;;;;;;;;;;5047649;28;20032;-65
2022/11/28 05:01:51;;;;;;;5.75;3.17;;;;;;;;;;5047275;28;20500;-66
2022/11/28 05:04:17;;;;;;;7.13;3.45;;;;;;;;;;5065665;28;20175;-73
2022/11/28 05:06:42;;;;;;;5.63;3.50;;;;;;;;;;5052316;28;20398;-69
2022/11/28 05:09:09;;;;;;;6.32;2.90;;;;;;;;;;5051216;28;20124;-70
2022/11/28 05:11:35;;;;;;;6.10;3.75;;;;;;;;;;5068488;28;20039;-69
2022/11/28 05:14:00;;;;;;;5.90;3.10;;;;;;;;;;5069342;28;20028;-68
2022/11/28 05:16:26;;;;;;;5.88;3.70;;;;;;;;;;5069301;28;20036;-69
2022/11/28 05:18:51;;;;;;;5.38;3.20;;;;;;;;;;5068729;28;20032;-65
2022/11/28 05:21:16;;;;;;;6.28;3.35;;;;;;;;;;5056923;28;20047;-72
2022/11/28 05:23:43;;;;;;;5.10;2.95;;;;;;;;;;5014722;28;20099;-72
2022/11/28 05:26:10;;;;;;;5.80;3.15;;;;;;;;;;5060504;28;20040;-65
2022/11/28 05:28:36;;;;;;;5.97;3.38;;;;;;;;;;5050611;28;20028;-70
2022/11/28 05:31:02;;;;;;;5.57;3.30;;;;;;;;;;5067755;28;20036;-72
2022/11/28 05:33:29;;;;;;;6.78;2.95;;;;;;;;;;5050935;28;20035;-65
2022/11/28 05:35:54;;;;;;;7.25;3.25;;;;;;;;;;5060405;28;20040;-64
2022/11/28 05:38:20;;;;;;;5.22;2.65;;;;;;;;;;5049040;28;20509;-68
2022/11/28 05:40:45;;;;;;;5.40;3.10;;;;;;;;;;5049821;28;20212;-67
2022/11/28 05:43:11;;;;;;;5.85;3.33;;;;;;;;;;5048660;28;20501;-67
2022/11/28 05:45:43;;;;;;;8.25;3.92;;;;;;;;;;5055937;28;20071;-68
2022/11/28 05:48:09;;;;;;;7.57;3.63;;;;;;;;;;5051163;28;20029;-66
2022/11/28 05:50:37;;;;;;;7.38;3.22;;;;;;;;;;5068659;28;20059;-70
2022/11/28 05:53:02;;;;;;;7.45;3.50;;;;;;;;;;5050887;28;20038;-65
2022/11/28 05:55:28;;;;;;;12.82;4.63;;;;;;;;;;5018036;28;20044;-69
2022/11/28 05:57:18;;;;;;;35.37;20.10;;;;;;;40.35;38.46;100692.47;6041049;22;4866853;-73
2022/11/28 05:57:53;;;;;;;5.93;3.42;;;;;;;;;;5068482;28;20508;-64
2022/11/28 05:59:44;;;;;;;42.53;22.10;;;;;;;40.11;39.02;100693.06;6280495;22;20190;-72
2022/11/28 06:00:19;;;;;;;8.50;3.50;;;;;;;;;;5067895;28;20028;-68
2022/11/28 06:02:10;;;;;;;34.80;17.97;;;;;;;40.08;39.22;100696.41;6307915;22;20389;-73
2022/11/28 06:02:45;;;;;;;6.07;2.97;;;;;;;;;;5050703;28;20055;-63
2022/11/28 06:04:36;;;;;;;38.20;25.30;;;;;;;40.43;38.53;100691.63;6280404;22;20609;-74
2022/11/28 06:05:10;;;;;;;7.43;3.58;;;;;;;;;;5068122;28;20055;-72
2022/11/28 06:07:02;;;;;;;37.03;23.43;;;;;;;39.73;39.68;100692.97;6280373;22;20184;-75
2022/11/28 06:07:36;;;;;;;7.13;3.72;;;;;;;;;;5067790;28;20058;-67
2022/11/28 06:09:28;;;;;;;33.60;22.97;;;;;;;39.92;39.22;100696.13;6280551;22;20476;-74
2022/11/28 06:10:01;;;;;;;7.97;3.28;;;;;;;;;;5050382;28;20131;-68
2022/11/28 06:11:54;;;;;;;36.10;21.10;;;;;;;40.20;38.88;100706.59;6280174;22;20161;-71
2022/11/28 06:12:27;;;;;;;7.22;3.50;;;;;;;;;;5068148;28;20111;-68
2022/11/28 06:14:20;;;;;;;35.13;22.50;;;;;;;39.91;39.34;100699.16;6280385;22;20178;-72
2022/11/28 06:14:52;;;;;;;8.38;3.80;;;;;;;;;;5068144;28;20029;-66
2022/11/28 06:16:46;;;;;;;41.63;21.80;;;;;;;40.17;38.71;100705.34;6278708;22;20146;-75
2022/11/28 06:17:17;;;;;;;7.03;3.63;;;;;;;;;;5067097;28;20037;-70
2022/11/28 06:19:12;;;;;;;38.87;24.10;;;;;;;40.33;38.74;100708.31;6279676;22;20483;-73
2022/11/28 06:19:43;;;;;;;6.43;3.10;;;;;;;;;;5068195;28;20036;-70
2022/11/28 06:21:38;;;;;;;50.17;21.77;;;;;;;40.15;39.06;100709.53;6278743;22;20262;-74
2022/11/28 06:22:09;;;;;;;5.35;3.17;;;;;;;;;;5066737;28;20498;-68
2022/11/28 06:24:04;;;;;;;36.03;22.90;;;;;;;40.71;38.05;100715.69;6306790;22;20357;-75
2022/11/28 06:24:34;;;;;;;6.43;3.58;;;;;;;;;;5057729;28;20048;-65
2022/11/28 06:26:30;;;;;;;42.43;24.97;;;;;;;41.02;37.86;100721.56;6280563;22;20373;-75
2022/11/28 06:26:59;;;;;;;5.82;2.80;;;;;;;;;;5065329;28;20032;-67
2022/11/28 06:28:56;;;;;;;36.03;22.27;;;;;;;41.15;37.42;100714.28;6279801;22;20426;-73
2022/11/28 06:29:25;;;;;;;5.65;3.13;;;;;;;;;;5060725;28;20035;-68
2022/11/28 06:31:26;;;;;;;39.17;24.40;;;;;;;41.36;36.96;100718.94;6279980;22;20435;-73
2022/11/28 06:31:50;;;;;;;5.88;3.22;;;;;;;;;;5030001;28;20028;-68
2022/11/28 06:33:52;;;;;;;41.43;22.87;;;;;;;41.29;36.62;100719.44;6307969;22;20134;-73
2022/11/28 06:34:16;;;;;;;5.20;3.17;;;;;;;;;;5046809;28;20041;-64
2022/11/28 06:36:18;;;;;;;37.70;24.07;;;;;;;41.34;36.81;100722.78;6279258;22;20401;-75
2022/11/28 06:36:42;;;;;;;6.07;3.85;;;;;;;;;;5047896;28;20417;-63
2022/11/28 06:38:45;;;;;;;33.37;26.30;;;;;;;41.48;36.42;100727.94;6280007;22;20418;-76
2022/11/28 06:39:09;;;;;;;6.38;3.30;;;;;;;;;;5047531;28;20037;-62
2022/11/28 06:41:14;;;;;;;38.17;25.97;;;;;;;41.41;36.55;100730.41;6279274;22;20832;-74
2022/11/28 06:41:35;;;;;;;6.28;3.20;;;;;;;;;;5047503;28;20043;-64
2022/11/28 06:43:41;;;;;;;36.23;25.80;;;;;;;41.51;36.39;100740.91;6279523;22;20936;-74
2022/11/28 06:44:00;;;;;;;6.38;3.50;;;;;;;;;;5028971;28;20052;-62
2022/11/28 06:46:15;;;;;;;52.70;28.23;;;;;;;41.66;36.10;100742.19;6306411;22;20353;-76
2022/11/28 06:46:26;;;;;;;6.20;3.58;;;;;;;;;;5047829;28;20029;-67
2022/11/28 06:48:41;;;;;;;57.90;28.17;;;;;;;41.41;36.45;100740.50;6305189;22;20392;-76
2022/11/28 06:48:52;;;;;;;5.63;3.28;;;;;;;;;;5047479;28;20037;-63
2022/11/28 06:51:07;;;;;;;43.00;27.67;;;;;;;41.45;36.12;100742.25;6277449;22;20379;-75
2022/11/28 06:51:17;;;;;;;7.90;3.75;;;;;;;;;;5046756;28;20524;-61
2022/11/28 06:53:34;;;;;;;45.90;27.57;;;;;;;41.46;36.56;100745.75;6277410;22;20182;-75
2022/11/28 06:53:43;;;;;;;5.80;3.47;;;;;;;;;;5047254;28;20032;-62
2022/11/28 06:56:10;;;;;;;6.38;3.42;;;;;;;;;;5047451;28;20033;-62
2022/11/28 06:56:19;;;;;;;38.57;27.07;;;;;;;41.62;36.22;100749.47;6258242;22;20504;-76
2022/11/28 06:58:36;;;;;;;5.35;3.25;;;;;;;;;;5046996;28;20029;-62
2022/11/28 06:58:46;;;;;;;45.70;28.63;;;;;;;41.48;36.39;100743.50;6217549;23;20401;-76
2022/11/28 07:01:10;;;;;;;5.60;3.13;;;;;;;;;;5029443;28;20037;-67
2022/11/28 07:01:20;;;;;;;35.90;27.37;;;;;;;41.53;36.60;100754.19;6217711;23;20422;-74
2022/11/28 07:03:36;;;;;;;5.22;3.17;;;;;;;;;;5047088;28;20123;-66
2022/11/28 07:03:47;;;;;;;47.33;27.03;;;;;;;41.66;36.27;100760.47;6218544;23;20378;-74
2022/11/28 07:06:02;;;;;;;5.82;3.22;;;;;;;;;;5028574;28;20053;-68
2022/11/28 07:06:14;;;;;;;53.77;29.17;;;;;;;41.68;36.33;100759.03;6218885;23;20414;-73
2022/11/28 07:08:28;;;;;;;6.45;3.63;;;;;;;;;;5047278;28;20039;-68
2022/11/28 07:08:41;;;;;;;55.57;28.27;;;;;;;41.65;36.38;100772.50;6218689;23;20378;-75
2022/11/28 07:10:56;;;;;;;5.60;3.17;;;;;;;;;;5029038;28;20037;-70
2022/11/28 07:11:31;;;;;;;46.90;31.23;;;;;;;41.68;36.50;100774.53;6246180;23;20363;-74
2022/11/28 07:13:22;;;;;;;5.97;3.25;;;;;;;;;;5044993;28;20029;-62
2022/11/28 07:14:01;;;;;;;44.47;29.83;;;;;;;41.55;36.56;100771.78;6218175;23;20379;-75
2022/11/28 07:15:49;;;;;;;7.20;3.95;;;;;;;;;;5029131;28;20468;-63
2022/11/28 07:16:30;;;;;;;47.00;30.57;;;;;;;41.73;36.10;100777.84;6216672;23;20473;-76
2022/11/28 07:18:14;;;;;;;6.38;3.30;;;;;;;;;;5065406;28;20367;-66
2022/11/28 07:18:57;;;;;;;57.43;33.37;;;;;;;41.67;36.28;100773.75;6216285;23;20382;-76
2022/11/28 07:20:39;;;;;;;5.82;3.13;;;;;;;;;;5066671;28;20074;-67
2022/11/28 07:21:23;;;;;;;50.00;34.40;;;;;;;41.66;36.51;100771.38;6216315;23;20426;-76
2022/11/28 07:23:06;;;;;;;5.90;3.25;;;;;;;;;;5066207;28;20122;-62
2022/11/28 07:23:49;;;;;;;43.00;29.90;;;;;;;41.73;36.41;100782.50;6216590;23;20379;-76
2022/11/28 07:25:31;;;;;;;5.82;3.15;;;;;;;;;;5060094;28;20477;-67
2022/11/28 07:26:17;;;;;;;46.13;29.93;;;;;;;41.75;36.07;100780.31;6216487;23;20381;-76
2022/11/28 07:27:58;;;;;;;5.65;3.72;;;;;;;;;;5046084;28;20040;-67
2022/11/28 07:28:44;;;;;;;49.30;30.07;;;;;;;41.61;36.45;100781.31;6216290;23;20494;-76
2022/11/28 07:30:24;;;;;;;5.38;2.97;;;;;;;;;;5046101;28;20044;-67
2022/11/28 07:31:16;;;;;;;50.50;30.67;;;;;;;41.71;36.45;100790.22;6217674;23;20371;-75
2022/11/28 07:32:49;;;;;;;5.30;3.15;;;;;;;;;;5046746;28;20175;-69
2022/11/28 07:33:44;;;;;;;44.73;28.00;;;;;;;41.90;35.85;100790.56;6218601;23;20873;-76
2022/11/28 07:35:15;;;;;;;5.15;3.45;;;;;;;;;;5046829;28;20175;-67
2022/11/28 07:36:16;;;;;;;40.03;29.90;;;;;;;41.88;36.14;100794.75;6218547;23;20406;-74
2022/11/28 07:37:40;;;;;;;5.75;3.42;;;;;;;;;;5028625;28;20379;-62
2022/11/28 07:38:46;;;;;;;54.23;34.53;;;;;;;42.04;35.88;100791.03;6218538;23;20383;-75
2022/11/28 07:40:06;;;;;;;6.75;3.40;;;;;;;;;;5011978;28;20032;-64
2022/11/28 07:41:13;;;;;;;47.00;27.70;;;;;;;42.10;35.70;100791.63;6218306;23;20433;-74
2022/11/28 07:42:31;;;;;;;5.75;3.50;;;;;;;;;;5046396;28;20037;-67
2022/11/28 07:43:41;;;;;;;34.43;26.67;;;;;;;41.90;35.96;100801.44;6218543;23;20431;-74
2022/11/28 07:45:03;;;;;;;5.32;3.40;;;;;;;;;;5045599;28;20060;-63
2022/11/28 07:46:11;;;;;;;53.67;29.13;;;;;;;41.87;36.31;100799.41;6218464;23;20733;-74
2022/11/28 07:47:29;;;;;;;6.30;3.88;;;;;;;;;;5046158;28;20029;-65
2022/11/28 07:48:37;;;;;;;37.77;24.93;;;;;;;42.11;35.71;100810.38;6218423;23;20420;-75
2022/11/28 07:49:55;;;;;;;6.15;3.60;;;;;;;;;;5028560;28;20036;-68
2022/11/28 07:51:11;;;;;;;39.50;31.97;;;;;;;42.07;35.77;100808.66;6218404;23;20398;-74
2022/11/28 07:52:20;;;;;;;5.68;3.25;;;;;;;;;;5028589;28;20063;-68
2022/11/28 07:53:38;;;;;;;44.77;27.30;;;;;;;42.14;35.62;100814.34;6218324;23;20432;-75
2022/11/28 07:54:47;;;;;;;5.50;3.10;;;;;;;;;;5045514;28;20064;-68
2022/11/28 07:56:06;;;;;;;45.97;30.60;;;;;;;42.24;35.70;100808.53;6218126;23;20438;-75
2022/11/28 07:57:12;;;;;;;6.13;3.17;;;;;;;;;;5046517;28;20041;-69
2022/11/28 07:58:34;;;;;;;54.33;26.00;;;;;;;42.20;35.44;100804.88;6218322;23;20406;-74
2022/11/28 07:59:38;;;;;;;5.97;3.30;;;;;;;;;;5046194;28;20141;-66
2022/11/28 08:01:07;;;;;;;38.60;25.30;;;;;;;42.12;35.88;100822.88;6218088;23;20916;-74
2022/11/28 08:02:04;;;;;;;6.25;3.28;;;;;;;;;;5045916;28;20078;-65
2022/11/28 08:03:33;;;;;;;28.43;22.30;;;;;;;42.31;35.35;100808.75;6218170;23;20385;-74
2022/11/28 08:04:29;;;;;;;6.15;3.20;;;;;;;;;;5045796;28;20417;-67
2022/11/28 08:06:01;;;;;;;42.60;26.23;;;;;;;42.18;35.44;100817.25;6218247;23;20403;-75
2022/11/28 08:06:55;;;;;;;5.65;3.28;;;;;;;;;;5046397;28;20771;-69
2022/11/28 08:08:27;;;;;;;30.03;17.80;;;;;;;42.07;35.09;100816.84;6218299;23;20155;-75
2022/11/28 08:09:21;;;;;;;6.30;3.03;;;;;;;;;;5046027;28;20075;-66
2022/11/28 08:10:58;;;;;;;26.37;15.83;;;;;;;41.65;35.96;100814.16;6218205;23;20385;-75
2022/11/28 08:11:47;;;;;;;5.68;3.47;;;;;;;;;;5045254;28;20060;-69
2022/11/28 08:13:24;;;;;;;26.47;15.00;;;;;;;41.55;36.15;100817.25;6218269;23;20382;-76
2022/11/28 08:14:13;;;;;;;5.63;3.42;;;;;;;;;;5027958;28;20056;-66
2022/11/28 08:15:49;;;;;;;25.63;15.50;;;;;;;41.61;36.17;100821.38;6218844;23;20684;-75
2022/11/28 08:16:43;;;;;;;6.78;3.80;;;;;;;;;;5035160;28;20025;-68
2022/11/28 08:18:16;;;;;;;31.00;18.40;;;;;;;41.86;35.76;100812.22;6218307;23;20389;-74
2022/11/28 08:19:09;;;;;;;6.95;3.33;;;;;;;;;;5072232;28;20043;-68
2022/11/28 08:20:42;;;;;;;32.10;17.50;;;;;;;40.81;37.34;100815.91;6218093;23;20190;-75
2022/11/28 08:21:35;;;;;;;5.93;2.90;;;;;;;;;;5075262;28;20763;-65
2022/11/28 08:23:08;;;;;;;26.97;15.20;;;;;;;40.86;37.61;100823.09;6217731;23;20402;-73
2022/11/28 08:24:01;;;;;;;5.72;3.20;;;;;;;;;;5056375;28;21460;-66
2022/11/28 08:25:34;;;;;;;21.00;15.20;;;;;;;41.36;36.99;100822.38;6217889;23;20928;-75
2022/11/28 08:26:28;;;;;;;5.93;3.40;;;;;;;;;;5056857;28;20486;-65
2022/11/28 08:28:00;;;;;;;23.77;14.30;;;;;;;40.83;37.46;100821.06;6218060;23;20412;-76
2022/11/28 08:28:53;;;;;;;5.70;3.33;;;;;;;;;;5069794;28;20036;-64
2022/11/28 08:30:26;;;;;;;31.57;16.43;;;;;;;41.24;37.04;100826.59;6218412;23;20152;-75
2022/11/28 08:31:29;;;;;;;6.68;3.97;;;;;;;;;;5066040;28;20109;-63
2022/11/28 08:32:52;;;;;;;24.33;14.30;;;;;;;41.90;36.29;100820.53;6218256;23;20723;-75
2022/11/28 08:33:56;;;;;;;7.05;3.70;;;;;;;;;;5065471;28;20101;-66
2022/11/28 08:35:18;;;;;;;37.67;27.40;;;;;;;41.78;36.03;100820.47;6244985;23;20391;-76
2022/11/28 08:36:21;;;;;;;5.35;3.03;;;;;;;;;;5065664;28;20032;-68
2022/11/28 08:37:44;;;;;;;39.97;21.43;;;;;;;41.33;36.79;100824.66;6217942;23;20727;-75
2022/11/28 08:38:47;;;;;;;6.65;3.47;;;;;;;;;;5065626;28;20058;-69
2022/11/28 08:40:11;;;;;;;26.87;20.93;;;;;;;41.66;36.36;100826.63;6217653;23;20425;-74
2022/11/28 08:41:14;;;;;;;5.28;2.92;;;;;;;;;;5065330;28;20028;-65
2022/11/28 08:42:37;;;;;;;44.67;29.97;;;;;;;41.42;36.74;100837.38;6243526;23;20428;-75
2022/11/28 08:43:40;;;;;;;5.65;3.35;;;;;;;;;;5047580;28;20056;-67
2022/11/28 08:45:05;;;;;;;41.43;23.33;;;;;;;41.43;36.27;100842.50;6217558;23;20375;-74
2022/11/28 08:46:07;;;;;;;5.47;2.97;;;;;;;;;;5065919;28;20025;-69
2022/11/28 08:47:31;;;;;;;25.80;17.80;;;;;;;42.04;35.52;100831.91;6217514;23;20193;-75
2022/11/28 08:48:33;;;;;;;5.18;3.25;;;;;;;;;;5064970;28;20044;-63
2022/11/28 08:49:57;;;;;;;34.43;19.47;;;;;;;41.35;36.58;100837.91;6218017;23;20382;-74
2022/11/28 08:50:59;;;;;;;6.10;2.92;;;;;;;;;;5073204;28;20024;-69
2022/11/28 08:52:24;;;;;;;37.87;27.10;;;;;;;40.93;37.60;100837.00;6215787;23;20402;-71
2022/11/28 08:53:24;;;;;;;6.15;3.17;;;;;;;;;;5073914;28;20116;-69
2022/11/28 08:54:50;;;;;;;58.03;40.30;;;;;;;41.34;36.98;100841.78;6216229;23;20382;-73
2022/11/28 08:55:49;;;;;;;4.85;2.75;;;;;;;;;;5074558;28;20489;-69
2022/11/28 08:57:16;;;;;;;49.73;37.90;;;;;;;41.40;36.82;100826.84;6241649;22;20928;-73
2022/11/28 08:58:15;;;;;;;5.50;3.47;;;;;;;;;;5075706;28;20123;-71
2022/11/28 08:59:42;;;;;;;30.97;19.80;;;;;;;41.19;36.70;100825.97;6275471;22;20454;-73
2022/11/28 09:00:41;;;;;;;5.20;2.95;;;;;;;;;;5074265;28;20065;-67
2022/11/28 09:02:14;;;;;;;41.70;19.03;;;;;;;41.39;36.76;100840.78;6248541;22;20412;-74
2022/11/28 09:03:07;;;;;;;5.85;3.20;;;;;;;;;;5076365;28;20504;-65
2022/11/28 09:04:40;;;;;;;29.10;17.67;;;;;;;41.96;35.91;100845.63;6275632;22;20141;-75
2022/11/28 09:05:33;;;;;;;5.20;3.35;;;;;;;;;;5074023;28;20044;-68
2022/11/28 09:07:06;;;;;;;41.47;17.40;;;;;;;41.66;35.77;100815.75;6248012;22;20398;-75
2022/11/28 09:07:58;;;;;;;5.68;3.20;;;;;;;;;;5063638;28;20680;-68
2022/11/28 09:09:32;;;;;;;27.57;17.43;;;;;;;41.75;35.65;100835.56;6248810;22;20151;-75
2022/11/28 09:10:24;;;;;;;6.30;3.10;;;;;;;;;;5074794;28;20115;-72
2022/11/28 09:11:57;;;;;;;37.57;25.00;;;;;;;41.54;36.28;100832.00;6247342;22;20237;-75
2022/11/28 09:12:50;;;;;;;6.00;2.72;;;;;;;;;;5074504;28;20032;-71
2022/11/28 09:14:26;;;;;;;31.53;19.40;;;;;;;41.79;35.77;100825.59;6247813;22;20150;-75
2022/11/28 09:15:17;;;;;;;5.72;3.10;;;;;;;;;;5075406;28;20195;-66
2022/11/28 09:16:52;;;;;;;31.47;15.63;;;;;;;41.70;35.75;100835.75;6247883;22;20382;-74
2022/11/28 09:17:42;;;;;;;4.75;2.72;;;;;;;;;;5051676;28;20024;-66
2022/11/28 09:19:18;;;;;;;22.60;18.37;;;;;;;41.73;36.16;100829.63;6248233;22;20401;-74
2022/11/28 09:20:08;;;;;;;5.18;2.88;;;;;;;;;;5075394;28;20032;-67
2022/11/28 09:21:44;;;;;;;31.70;17.80;;;;;;;42.20;35.48;100829.41;6248602;22;20234;-74
2022/11/28 09:22:34;;;;;;;5.72;3.35;;;;;;;;;;5074180;28;20071;-69
2022/11/28 09:24:12;;;;;;;40.60;27.73;;;;;;;41.94;35.56;100820.66;6248082;22;20151;-75
2022/11/28 09:24:59;;;;;;;5.40;2.80;;;;;;;;;;5073511;28;20101;-67
2022/11/28 09:26:38;;;;;;;34.00;27.50;;;;;;;42.24;35.32;100824.09;6247342;22;20205;-75
2022/11/28 09:27:24;;;;;;;4.75;2.67;;;;;;;;;;5057436;28;20028;-68
2022/11/28 09:29:05;;;;;;;29.37;18.13;;;;;;;42.19;35.08;100825.09;6247082;22;20773;-75
2022/11/28 09:29:50;;;;;;;6.75;3.65;;;;;;;;;;5073609;28;20044;-69
2022/11/28 09:31:31;;;;;;;30.90;15.73;;;;;;;42.07;35.59;100814.91;6248152;22;20416;-75
2022/11/28 09:32:15;;;;;;;5.32;3.03;;;;;;;;;;5073696;28;20028;-68
2022/11/28 09:33:57;;;;;;;22.17;12.70;;;;;;;42.13;35.51;100805.38;6247983;22;20416;-76
2022/11/28 09:34:41;;;;;;;5.03;2.80;;;;;;;;;;5074678;28;20739;-70
2022/11/28 09:36:23;;;;;;;26.43;12.33;;;;;;;42.32;35.28;100815.78;6246831;22;20378;-77
2022/11/28 09:37:06;;;;;;;6.13;3.03;;;;;;;;;;5076310;28;20437;-69
2022/11/28 09:38:50;;;;;;;20.17;13.17;;;;;;;42.49;35.05;100814.00;6249149;22;20904;-74
2022/11/28 09:39:32;;;;;;;7.05;2.80;;;;;;;;;;5072398;28;20035;-63
2022/11/28 09:41:34;;;;;;;22.60;12.83;;;;;;;42.15;35.52;100810.50;6248926;22;20983;-75
2022/11/28 09:42:10;;;;;;;4.95;2.97;;;;;;;;;;5074823;28;20043;-68
2022/11/28 09:44:26;;;;;;;27.90;12.23;;;;;;;42.51;34.60;100809.00;6248964;22;20856;-73
2022/11/28 09:44:40;;;;;;;5.18;2.70;;;;;;;;;;5072078;28;20460;-66